Aeroporto :
LOGIN :

Iscrizione | Disclaimer

   EN    FR    IT 

 










Sommario :    VFR   VFR Marginale   IFR   IFR Intensivo   IFR Molto Intensivo
Visibilità : 
Base nubi : 
>= 8 km
>= 3000ft
5 / 8 km
1000 / 3000 ft
1500m / 5 km
500 / 1000 ft
800 / 1500m
200 / 500 ft
< 800m
< 200 ft
Simboli :   Temporali  Nebbia  Neve Forte  Precipitazioni Forti  Vento > 20 kt
SIGMETs :   Varie  Temporali  Ghiacco  Turbolenza  Onda orograficha  Ceneri Vulcaniche






- Altitudine del aeroporto : 42 ft
- Codice IATA : KGD


UMKK - Khrabrava - Kaliningrad

ULTIMO METAR :
  • 252130Z 33004MPS 9999 OVC003 09/08 Q1028 R24/CLRD95 NOSIG RMK QBB090 OBST OBSC QFE770/1027

METARs OBSOLETI :
  • 252100Z 33004MPS 9999 OVC004 09/08 Q1028 R24/CLRD95 NOSIG RMK QBB120 OBST OBSC QFE770/1026
  • 252030Z 33005MPS 9999 BKN005 09/08 Q1028 R24/CLRD95 NOSIG RMK QBB150 OBST OBSC QFE770/1026
  • 252000Z 33004MPS 9999 BKN006 09/08 Q1027 R24/CLRD95 NOSIG RMK QBB180 OBST OBSC QFE769/1026
  • 251930Z 33004MPS 290V350 9999 BKN006 10/08 Q1027 R24/CLRD95 NOSIG RMK QBB180 OBST OBSC QFE769/1026
  • 251900Z 33004MPS 300V360 9999 BKN007 10/09 Q1027 R24/CLRD95 NOSIG RMK QFE769/1026

TAF TAF UMKK
Valido dal 25 a 21 ore il 26 a 21 ore UTC


251959Z 2521/2621 35003G08MPS 6000 BKN004
TEMPO 2521/2609 0400 FG BKN002
BECMG 2609/2611 FEW003 BKN011
TEMPO 2611/2618 34005G10MPS 9999 SCT011
BECMG 2618/2620 32003G08MPS



MetMap, La meteo Aeronautica in un colpo d'occhio ! - Copyright ORBIFLY Dicembre 2007 - Disclaimer

ORBIFLY MET'MAP TEAM :

Programmazione e sviluppo : Alexandra Zaïnal
Concezione : Baudouin d'Aumeries
Aiuto per la programmazione : Marc-Olivier Méhu
Supporto tecnico e logistico : Manuel Goepfert
Aiuto per la traduzione : Arnaldo La Scala

Contatto : metmap@orbifly.com




FONTI E CREDITI :

   NOAA